»·PEaware :: AAL1117 KSAN-KSNA

AAL1117 :: KSAN-KSNA

FLIGHT INFORMATION

Flight Status: Arrived
Operator:
American Airlines
More flights by this operator :: More flights under this callsign
Pilot: Adam W. (20046)
Aircraft: AIRBUS A320
(A320)
More flights by this aircraft type
Origin: KSAN San Diego Intl-Lindbergh
United States
Destination: KSNA John Wayne-Orange Co
United States
More flights between these airports :: More routes between these airports
Route: CWARD2 SLI
File this flight plan on PilotEdge
Remarks: TEC route SANP4R
Altitude:
(Current/Filed)
10,000ft
Speed:
(Current/Filed)
250kts
Departed: 28-Oct-19 03:23 PM
Arrived: 28-Oct-19 03:52 PM
Distance/Time
Traveled:
66nm/0:29
Distance/Time
To Go:
Arrived

Flight Plot

Page will automatically refresh every two minutes.

Flight plan parsing failed; only flown route is shown


Map Options




Map Legend


Flown Route
Filed Route
Departure Airport
Arrival Airport
Navaid (VOR, NDB)
Fix

Horizontal Profiles

Position Reports

Time Latitude Longitude Heading Altitude Ground
Speed
28-Oct-19 15:02 32.733909 -117.200489 259 26ft 0kts
28-Oct-19 15:03 32.733909 -117.200489 259 26ft 0kts
28-Oct-19 15:04 32.733909 -117.200489 259 26ft 0kts
28-Oct-19 15:05 32.733909 -117.200489 259 26ft 0kts
28-Oct-19 15:06 32.733909 -117.200489 259 26ft 0kts
28-Oct-19 15:07 32.733909 -117.200489 259 26ft 0kts
28-Oct-19 15:08 32.733909 -117.200489 259 26ft 0kts
28-Oct-19 15:09 32.733909 -117.200489 259 26ft 0kts
28-Oct-19 15:10 32.733909 -117.200489 259 26ft 0kts
28-Oct-19 15:11 32.733909 -117.200489 259 26ft 0kts
28-Oct-19 15:12 32.733909 -117.200489 259 26ft 0kts
28-Oct-19 15:13 32.733909 -117.200489 259 26ft 0kts
28-Oct-19 15:14 32.733980 -117.200030 259 26ft 2kts
28-Oct-19 15:15 32.734022 -117.199660 343 26ft 0kts
28-Oct-19 15:16 32.734271 -117.199594 14 26ft 0kts
28-Oct-19 15:18 32.734271 -117.199594 14 26ft 0kts
28-Oct-19 15:19 32.734390 -117.197391 106 26ft 20kts
28-Oct-19 15:20 32.732847 -117.191015 106 26ft 20kts
28-Oct-19 15:21 32.731141 -117.183987 106 26ft 23kts
28-Oct-19 15:22 32.729487 -117.176855 81 26ft 18kts
28-Oct-19 15:23 32.733602 -117.189881 286 50ft 156kts
28-Oct-19 15:24 32.756645 -117.241233 303 3000ft 206kts
28-Oct-19 15:25 32.793805 -117.307970 303 5870ft 269kts
28-Oct-19 15:26 32.839700 -117.380112 308 9382ft 279kts
28-Oct-19 15:27 32.887359 -117.454215 308 10009ft 282kts
28-Oct-19 15:28 32.935231 -117.528726 308 10015ft 283kts
28-Oct-19 15:29 32.983135 -117.603444 308 10020ft 283kts
28-Oct-19 15:30 33.030449 -117.677353 308 10019ft 282kts
28-Oct-19 15:31 33.081592 -117.747473 319 10017ft 281kts
28-Oct-19 15:32 33.141258 -117.808157 319 10019ft 280kts
28-Oct-19 15:33 33.203295 -117.863956 343 10026ft 283kts
28-Oct-19 15:34 33.280124 -117.883246 347 10028ft 282kts
28-Oct-19 15:35 33.357383 -117.902488 347 10013ft 284kts
28-Oct-19 15:36 33.429021 -117.925467 341 9086ft 243kts
28-Oct-19 15:36 33.480555 -117.944133 341 8199ft 231kts
28-Oct-19 15:38 33.551647 -117.970096 341 6943ft 223kts
28-Oct-19 15:39 33.612510 -117.967214 13 6030ft 222kts
28-Oct-19 15:39 33.662442 -117.951353 12 5281ft 223kts
28-Oct-19 15:41 33.731969 -117.929521 12 3552ft 220kts
28-Oct-19 15:42 33.787152 -117.908983 30 3011ft 197kts
28-Oct-19 15:42 33.824195 -117.878583 32 3002ft 191kts
28-Oct-19 15:44 33.875389 -117.836629 32 3001ft 190kts
28-Oct-19 15:44 33.911010 -117.805743 56 3002ft 191kts
28-Oct-19 15:45 33.891409 -117.754652 173 3014ft 196kts
28-Oct-19 15:46 33.838795 -117.766312 203 3010ft 195kts
28-Oct-19 15:47 33.791389 -117.795594 209 2529ft 187kts
28-Oct-19 15:48 33.748289 -117.822886 209 1540ft 161kts
28-Oct-19 15:49 33.711884 -117.845935 210 743ft 135kts
28-Oct-19 15:50 33.678506 -117.867053 209 70ft 130kts
28-Oct-19 15:51 33.669213 -117.870862 50 65ft 12kts
28-Oct-19 15:52 33.673078 -117.867290 48 65ft 18kts
28-Oct-19 15:53 33.677978 -117.864027 27 65ft 22kts
28-Oct-19 15:54 33.679338 -117.862361 116 65ft 0kts
28-Oct-19 15:55 33.679338 -117.862361 116 65ft 0kts

Navigation Log

Ident Type
Flight plan parsing failed, navigation log unavailable